Terminal Aerodrome Forecast
Issued by NWS

Home | Current Version | Previous Version | Graphics & Text | Print | Product List | Glossary On
Versions: 1 2 3 4 5 6 7 8 9 10 11 12 13 14 15
000
FTUS43 KIWX 311100
TAFSBN
TAF
KSBN 311138Z 3112/0112 23005KT P6SM BKN025
     FM311500 24005KT P6SM BKN030
     FM312000 22006KT P6SM SCT035
     FM010700 17006KT 5SM BR SCT015=

USA.gov is the U.S. government's official web portal to all federal, state and local government web resources and services.